Terminal Aerodrome Forecast
Issued by NWS

Home | Current Version | Previous Version | Text Only | Print | Product List | Glossary Off
Versions: 1 2 3 4 5 6 7 8 9 10 11 12 13 14 15

000
FTUS43 KFGF 251100
TAFBJI
TAF
KBJI 251120Z 2512/2612 VRB04KT P6SM OVC040
     FM251600 VRB04KT P6SM OVC025
     FM260900 02009KT 5SM -SN OVC015=

USA.gov is the U.S. government's official web portal to all federal, state and local government web resources and services.